createdAt,value
2023-01-26T00:01:30.009Z,0.20
2023-01-26T00:03:57.963Z,0.20
2023-01-26T00:06:25.599Z,0.10
2023-01-26T00:08:59.854Z,0.10
2023-01-26T00:11:29.496Z,0.10
2023-01-26T00:13:59.305Z,0.10
2023-01-26T00:16:27.986Z,0.10
2023-01-26T00:18:55.215Z,0.10
2023-01-26T00:21:24.029Z,0.10
2023-01-26T00:23:53.132Z,0.10
2023-01-26T00:26:25.553Z,0.10
2023-01-26T00:28:54.289Z,0.20
2023-01-26T00:31:27.536Z,0.20
2023-01-26T00:33:56.998Z,0.10
2023-01-26T00:36:24.693Z,0.00
2023-01-26T00:38:51.977Z,-0.10
2023-01-26T00:41:37.868Z,-0.10
2023-01-26T00:44:05.190Z,-0.20
2023-01-26T00:46:32.457Z,-0.20
2023-01-26T00:49:01.085Z,-0.20
2023-01-26T00:51:28.660Z,-0.10
2023-01-26T00:53:55.817Z,-0.20
2023-01-26T00:56:22.997Z,-0.20
2023-01-26T00:58:50.056Z,-0.20
2023-01-26T01:01:17.153Z,-0.20
2023-01-26T01:03:44.287Z,-0.20
2023-01-26T01:06:11.364Z,-0.20
2023-01-26T01:08:38.509Z,-0.10
2023-01-26T01:11:10.359Z,0.00
2023-01-26T01:13:39.205Z,0.00
2023-01-26T01:16:14.140Z,0.00
2023-01-26T01:18:41.384Z,-0.10
2023-01-26T01:21:11.184Z,-0.10
2023-01-26T01:23:38.972Z,-0.20
2023-01-26T01:26:06.537Z,-0.20
2023-01-26T01:28:38.782Z,-0.20
2023-01-26T01:31:11.304Z,-0.10
2023-01-26T01:33:39.280Z,-0.10
2023-01-26T01:36:10.934Z,-0.10
2023-01-26T01:38:38.022Z,0.00
2023-01-26T01:41:05.876Z,-0.10
2023-01-26T01:43:33.793Z,-0.10
2023-01-26T01:46:32.823Z,-0.20
2023-01-26T01:49:17.346Z,-0.30
2023-01-26T01:51:53.018Z,-0.30
2023-01-26T01:54:29.979Z,-0.40
2023-01-26T01:57:01.118Z,-0.40
2023-01-26T01:59:29.090Z,-0.50
2023-01-26T02:01:57.082Z,-0.50
2023-01-26T02:04:25.787Z,-0.50
2023-01-26T02:06:56.539Z,-0.50
2023-01-26T02:10:10.163Z,-0.50
2023-01-26T02:12:40.323Z,-0.40
2023-01-26T02:15:08.652Z,-0.40
2023-01-26T02:17:36.789Z,-0.30
2023-01-26T02:20:23.718Z,-0.20
2023-01-26T02:23:14.721Z,-0.20
2023-01-26T02:25:47.486Z,-0.20
2023-01-26T02:28:14.610Z,-0.20
2023-01-26T02:30:41.704Z,-0.10
2023-01-26T02:33:28.104Z,-0.20
2023-01-26T02:35:55.391Z,-0.20
2023-01-26T02:38:26.992Z,-0.20
2023-01-26T02:41:05.031Z,-0.20
2023-01-26T02:43:32.538Z,-0.20
2023-01-26T02:45:59.796Z,-0.20
2023-01-26T02:48:45.519Z,-0.20
2023-01-26T02:51:12.846Z,-0.20
2023-01-26T02:53:40.091Z,-0.20
2023-01-26T02:56:07.504Z,-0.20
2023-01-26T02:58:34.862Z,-0.30
2023-01-26T03:01:02.039Z,-0.30
2023-01-26T03:03:42.081Z,-0.20
2023-01-26T03:06:11.757Z,-0.30
2023-01-26T03:08:39.514Z,-0.40
2023-01-26T03:11:08.410Z,-0.30
2023-01-26T03:13:36.144Z,-0.30
2023-01-26T03:16:08.672Z,-0.40
2023-01-26T03:18:54.958Z,-0.40
2023-01-26T03:21:41.256Z,-0.40
2023-01-26T03:24:32.646Z,-0.40
2023-01-26T03:27:19.179Z,-0.50
2023-01-26T03:29:46.574Z,-0.30
2023-01-26T03:32:14.262Z,-0.10
2023-01-26T03:34:45.010Z,-0.20
2023-01-26T03:37:12.434Z,-0.30
2023-01-26T03:39:57.962Z,-0.20
2023-01-26T03:42:43.606Z,-0.30
2023-01-26T03:45:30.906Z,-0.30
2023-01-26T03:48:32.304Z,-0.40
2023-01-26T03:51:17.981Z,-0.50
2023-01-26T03:54:03.625Z,-0.50
2023-01-26T03:56:34.143Z,-0.50
2023-01-26T03:59:13.015Z,-0.40
2023-01-26T04:02:03.376Z,-0.30
2023-01-26T04:04:48.921Z,-0.30
2023-01-26T04:07:34.601Z,-0.30
2023-01-26T04:10:01.729Z,-0.20
2023-01-26T04:12:28.800Z,-0.20
2023-01-26T04:15:14.495Z,-0.20
2023-01-26T04:18:00.112Z,-0.30
2023-01-26T04:20:45.809Z,-0.30
2023-01-26T04:23:20.166Z,-0.40
2023-01-26T04:25:48.743Z,-0.60
2023-01-26T04:28:16.082Z,-0.70
2023-01-26T04:30:43.350Z,-0.60
2023-01-26T04:33:10.835Z,-0.70
2023-01-26T04:35:38.042Z,-0.80
2023-01-26T04:38:05.096Z,-0.70
2023-01-26T04:40:32.230Z,-0.70
2023-01-26T04:42:59.445Z,-0.70
2023-01-26T04:45:26.528Z,-0.80
2023-01-26T04:47:53.594Z,-0.80
2023-01-26T04:50:20.703Z,-0.80
2023-01-26T04:52:47.799Z,-0.80
2023-01-26T04:55:15.020Z,-0.80
2023-01-26T04:57:42.130Z,-0.90
2023-01-26T05:00:12.343Z,-0.90
2023-01-26T05:02:40.646Z,-0.80
2023-01-26T05:05:08.417Z,-0.80
2023-01-26T05:07:35.464Z,-0.80
2023-01-26T05:10:02.582Z,-0.90
2023-01-26T05:12:35.248Z,-0.90
2023-01-26T05:15:02.378Z,-0.90
2023-01-26T05:17:29.539Z,-0.80
2023-01-26T05:19:56.654Z,-0.80
2023-01-26T05:22:23.742Z,-0.80
2023-01-26T05:24:50.832Z,-0.70
2023-01-26T05:27:23.545Z,-0.80
2023-01-26T05:29:52.033Z,-0.90
2023-01-26T05:32:19.550Z,-0.80
2023-01-26T05:34:46.808Z,-0.80
2023-01-26T05:37:15.233Z,-0.80
2023-01-26T05:39:42.701Z,-0.80
2023-01-26T05:42:12.284Z,-0.70
2023-01-26T05:44:39.651Z,-0.70
2023-01-26T05:47:06.884Z,-0.80
2023-01-26T05:49:34.018Z,-0.90
2023-01-26T05:52:01.425Z,-0.90
2023-01-26T05:54:28.561Z,-0.90
2023-01-26T05:56:57.711Z,-0.90
2023-01-26T05:59:24.800Z,-0.90
2023-01-26T06:01:51.973Z,-0.90
2023-01-26T06:04:19.282Z,-0.90
2023-01-26T06:06:46.478Z,-0.90
2023-01-26T06:09:13.698Z,-0.90
2023-01-26T06:11:40.805Z,-0.90
2023-01-26T06:14:08.009Z,-0.80
2023-01-26T06:16:35.177Z,-0.90
2023-01-26T06:19:02.511Z,-1.00
2023-01-26T06:21:31.338Z,-0.90
2023-01-26T06:23:58.825Z,-0.90
2023-01-26T06:26:26.472Z,-0.90
2023-01-26T06:28:54.345Z,-0.80
2023-01-26T06:31:24.617Z,-0.90
2023-01-26T06:33:51.873Z,-0.90
2023-01-26T06:36:19.057Z,-0.80
2023-01-26T06:38:54.528Z,-0.80
2023-01-26T06:41:23.341Z,-0.70
2023-01-26T06:43:50.408Z,-0.70
2023-01-26T06:46:18.283Z,-0.70
2023-01-26T06:48:45.917Z,-0.80
2023-01-26T06:51:19.482Z,-0.80
2023-01-26T06:53:52.926Z,-0.80
2023-01-26T06:56:21.363Z,-0.80
2023-01-26T06:58:49.523Z,-0.70
2023-01-26T07:01:26.288Z,-0.70
2023-01-26T07:03:55.179Z,-0.80
2023-01-26T07:06:22.279Z,-0.80
2023-01-26T07:08:49.579Z,-0.80
2023-01-26T07:11:17.456Z,-0.80
2023-01-26T07:13:44.540Z,-0.80
2023-01-26T07:16:14.867Z,-0.70
2023-01-26T07:18:42.269Z,-0.70
2023-01-26T07:21:18.461Z,-0.80
2023-01-26T07:23:46.801Z,-0.80
2023-01-26T07:26:14.589Z,-0.80
2023-01-26T07:28:42.137Z,-0.90
2023-01-26T07:31:11.928Z,-0.80
2023-01-26T07:33:39.437Z,-0.80
2023-01-26T07:36:08.535Z,-0.80
2023-01-26T07:38:35.696Z,-0.80
2023-01-26T07:41:09.730Z,-0.80
2023-01-26T07:43:38.318Z,-0.80
2023-01-26T07:46:07.383Z,-0.70
2023-01-26T07:48:34.830Z,-0.80
2023-01-26T07:51:04.553Z,-0.80
2023-01-26T07:53:34.260Z,-0.80
2023-01-26T07:56:14.177Z,-0.80
2023-01-26T07:58:41.674Z,-0.80
2023-01-26T08:01:14.549Z,-0.70
2023-01-26T08:03:42.631Z,-0.80
2023-01-26T08:06:12.108Z,-0.70
2023-01-26T08:08:41.491Z,-0.80
2023-01-26T08:11:10.025Z,-0.80
2023-01-26T08:13:38.157Z,-0.80
2023-01-26T08:16:12.918Z,-0.90
2023-01-26T08:18:42.939Z,-0.80
2023-01-26T08:21:12.017Z,-0.80
2023-01-26T08:23:39.575Z,-0.70
2023-01-26T08:26:13.617Z,-0.70
2023-01-26T08:28:41.369Z,-0.70
2023-01-26T08:31:17.949Z,-0.60
2023-01-26T08:33:51.004Z,-0.50
2023-01-26T08:36:22.093Z,-0.60
2023-01-26T08:38:50.326Z,-0.60
2023-01-26T08:41:17.970Z,-0.60
2023-01-26T08:43:45.223Z,-0.50
2023-01-26T08:46:12.387Z,-0.50
2023-01-26T08:48:39.594Z,-0.50
2023-01-26T08:51:08.501Z,-0.40
2023-01-26T08:53:38.097Z,-0.50
2023-01-26T08:56:08.929Z,-0.50
2023-01-26T08:58:36.864Z,-0.40
2023-01-26T09:01:15.929Z,-0.40
2023-01-26T09:03:45.002Z,-0.30
2023-01-26T09:06:14.808Z,-0.30
2023-01-26T09:08:42.502Z,-0.30
2023-01-26T09:11:10.289Z,-0.30
2023-01-26T09:13:39.268Z,-0.20
2023-01-26T09:16:12.964Z,-0.20
2023-01-26T09:18:40.296Z,-0.40
2023-01-26T09:21:09.345Z,-0.50
2023-01-26T09:23:37.706Z,-0.60
2023-01-26T09:26:05.263Z,-0.60
2023-01-26T09:28:32.520Z,-0.50
2023-01-26T09:31:13.270Z,-0.60
2023-01-26T09:33:40.614Z,-0.60
2023-01-26T09:36:11.199Z,-0.50
2023-01-26T09:38:40.244Z,-0.50
2023-01-26T09:41:19.149Z,-0.50
2023-01-26T09:44:09.859Z,-0.50
2023-01-26T09:47:19.144Z,-0.50
2023-01-26T09:50:38.159Z,-0.50
2023-01-26T09:53:28.828Z,-0.50
2023-01-26T09:55:56.412Z,-0.60
2023-01-26T09:58:38.367Z,-0.50
2023-01-26T10:01:15.309Z,-0.50
2023-01-26T10:04:16.630Z,-0.50
2023-01-26T10:06:44.443Z,-0.50
2023-01-26T10:09:38.964Z,-0.30
2023-01-26T10:12:31.488Z,-0.20
2023-01-26T10:15:16.760Z,-0.10
2023-01-26T10:17:46.183Z,0.00
2023-01-26T10:20:30.901Z,-0.10
2023-01-26T10:23:16.922Z,-0.10
2023-01-26T10:25:48.583Z,-0.20
2023-01-26T10:28:35.883Z,-0.30
2023-01-26T10:31:05.913Z,-0.40
2023-01-26T10:33:36.809Z,-0.30
2023-01-26T10:36:07.739Z,-0.30
2023-01-26T10:38:38.009Z,-0.30
2023-01-26T10:41:24.368Z,-0.20
2023-01-26T10:43:59.998Z,-0.10
2023-01-26T10:46:42.248Z,-0.10
2023-01-26T10:49:09.398Z,-0.10
2023-01-26T10:51:41.497Z,0.00
2023-01-26T10:54:26.525Z,-0.10
2023-01-26T10:57:17.191Z,-0.20
2023-01-26T10:59:51.287Z,-0.30
2023-01-26T11:02:24.073Z,-0.20
2023-01-26T11:05:10.145Z,-0.30
2023-01-26T11:07:42.967Z,-0.30
2023-01-26T11:10:36.839Z,-0.30
2023-01-26T11:13:14.692Z,-0.20
2023-01-26T11:15:45.586Z,-0.10
2023-01-26T11:18:46.089Z,-0.10
2023-01-26T11:21:32.463Z,0.00
2023-01-26T11:24:21.119Z,-0.10
2023-01-26T11:27:30.113Z,0.00
2023-01-26T11:30:43.997Z,0.00
2023-01-26T11:33:28.432Z,0.00
2023-01-26T11:36:12.767Z,0.00
2023-01-26T11:38:52.355Z,0.00
2023-01-26T11:41:28.596Z,-0.10
2023-01-26T11:44:22.024Z,-0.20
2023-01-26T11:47:04.016Z,-0.30
2023-01-26T11:50:05.519Z,-0.20
2023-01-26T11:53:01.823Z,-0.20
2023-01-26T11:55:58.815Z,0.00
2023-01-26T11:58:53.849Z,-0.10
2023-01-26T12:01:31.720Z,0.10
2023-01-26T12:03:58.803Z,0.20
2023-01-26T12:06:37.965Z,0.20
2023-01-26T12:09:33.396Z,0.30
2023-01-26T12:12:18.245Z,0.30
2023-01-26T12:15:00.182Z,0.10
2023-01-26T12:18:06.104Z,0.00
2023-01-26T12:20:50.196Z,0.10
2023-01-26T12:23:38.879Z,0.20
2023-01-26T12:26:16.460Z,0.10
2023-01-26T12:29:17.391Z,0.00
2023-01-26T12:31:59.097Z,0.00
2023-01-26T12:34:33.728Z,0.10
2023-01-26T12:37:29.002Z,0.10
2023-01-26T12:40:27.027Z,0.10
2023-01-26T12:42:56.915Z,0.10
2023-01-26T12:45:32.355Z,0.10
2023-01-26T12:48:20.287Z,0.10
2023-01-26T12:50:59.546Z,0.10
2023-01-26T12:53:52.652Z,0.10
2023-01-26T12:56:36.834Z,0.10
2023-01-26T12:59:47.312Z,0.10
2023-01-26T13:02:15.993Z,0.10
2023-01-26T13:04:47.232Z,0.10
2023-01-26T13:07:38.995Z,0.00
2023-01-26T13:10:11.501Z,-0.10
2023-01-26T13:13:14.509Z,-0.10
2023-01-26T13:15:41.741Z,0.00
2023-01-26T13:18:17.662Z,-0.10
2023-01-26T13:20:50.250Z,0.00
2023-01-26T13:23:43.340Z,0.00
2023-01-26T13:26:16.570Z,0.00
2023-01-26T13:28:45.066Z,0.10
2023-01-26T13:31:13.142Z,0.00
2023-01-26T13:33:42.068Z,0.10
2023-01-26T13:36:18.436Z,0.00
2023-01-26T13:39:00.241Z,0.00
2023-01-26T13:41:27.474Z,0.00
2023-01-26T13:44:11.994Z,0.00
2023-01-26T13:47:13.782Z,0.00
2023-01-26T13:49:43.105Z,-0.10
2023-01-26T13:52:29.335Z,-0.10
2023-01-26T13:55:02.058Z,-0.20
2023-01-26T13:57:30.789Z,-0.10
2023-01-26T14:00:00.606Z,-0.10
2023-01-26T14:02:31.309Z,-0.10
2023-01-26T14:05:00.174Z,-0.10
2023-01-26T14:07:41.993Z,-0.10
2023-01-26T14:10:20.608Z,-0.10
2023-01-26T14:12:52.041Z,-0.10
2023-01-26T14:15:28.965Z,-0.10
2023-01-26T14:18:02.471Z,0.00
2023-01-26T14:20:30.609Z,0.00
2023-01-26T14:23:18.645Z,-0.10
2023-01-26T14:26:04.200Z,-0.10
2023-01-26T14:28:38.174Z,-0.20
2023-01-26T14:31:24.066Z,-0.20
2023-01-26T14:33:57.844Z,-0.20
2023-01-26T14:36:29.128Z,-0.30
2023-01-26T14:38:56.975Z,-0.20
2023-01-26T14:41:33.804Z,-0.20
2023-01-26T14:44:06.152Z,-0.40
2023-01-26T14:46:59.462Z,-0.50
2023-01-26T14:49:55.958Z,-0.50
2023-01-26T14:52:29.939Z,-0.60
2023-01-26T14:55:08.842Z,-0.70
2023-01-26T14:57:36.081Z,-0.90
2023-01-26T15:00:09.707Z,-1.00
2023-01-26T15:02:43.289Z,-0.90
2023-01-26T15:05:18.234Z,-1.00
2023-01-26T15:08:02.363Z,-1.00
2023-01-26T15:11:20.166Z,-1.10
2023-01-26T15:13:55.717Z,-1.10
2023-01-26T15:16:26.077Z,-1.10
2023-01-26T15:19:01.805Z,-1.10
2023-01-26T15:21:44.334Z,-1.00
2023-01-26T15:24:15.888Z,-1.00
2023-01-26T15:26:43.554Z,-1.00
2023-01-26T15:29:31.828Z,-1.00
2023-01-26T15:31:59.521Z,-1.10
2023-01-26T15:34:38.788Z,-1.10
2023-01-26T15:37:28.745Z,-1.10
2023-01-26T15:39:56.142Z,-1.10
2023-01-26T15:42:30.375Z,-1.10
2023-01-26T15:44:58.455Z,-1.00
2023-01-26T15:47:25.804Z,-1.00
2023-01-26T15:49:53.027Z,-0.90
2023-01-26T15:52:25.714Z,-0.90
2023-01-26T15:54:56.811Z,-0.90
2023-01-26T15:57:23.977Z,-0.90
2023-01-26T15:59:51.081Z,-0.90
2023-01-26T16:02:21.142Z,-1.00
2023-01-26T16:04:48.673Z,-1.00
2023-01-26T16:07:19.799Z,-1.00
2023-01-26T16:09:48.884Z,-1.00
2023-01-26T16:12:30.834Z,-1.10
2023-01-26T16:15:00.328Z,-0.90
2023-01-26T16:17:27.684Z,-1.00
2023-01-26T16:19:54.850Z,-1.00
2023-01-26T16:22:22.130Z,-1.00
2023-01-26T16:24:49.218Z,-1.00
2023-01-26T16:27:16.285Z,-1.00
2023-01-26T16:29:43.421Z,-1.00
2023-01-26T16:32:28.438Z,-1.00
2023-01-26T16:34:55.711Z,-1.10
2023-01-26T16:37:22.946Z,-1.10
2023-01-26T16:39:50.084Z,-1.10
2023-01-26T16:42:21.613Z,-1.20
2023-01-26T16:44:48.991Z,-1.20
2023-01-26T16:47:16.113Z,-1.20
2023-01-26T16:49:43.322Z,-1.20
2023-01-26T16:52:10.517Z,-1.20
2023-01-26T16:54:37.846Z,-1.20
2023-01-26T16:57:05.226Z,-1.10
2023-01-26T16:59:32.410Z,-1.10
2023-01-26T17:01:59.731Z,-1.10
2023-01-26T17:04:26.866Z,-1.00
2023-01-26T17:06:54.006Z,-1.00
2023-01-26T17:09:21.371Z,-1.00
2023-01-26T17:11:48.531Z,-1.10
2023-01-26T17:14:15.782Z,-1.10
2023-01-26T17:16:43.013Z,-1.10
2023-01-26T17:19:10.200Z,-1.10
2023-01-26T17:21:37.417Z,-1.20
2023-01-26T17:24:06.868Z,-1.20
2023-01-26T17:26:34.062Z,-1.20
2023-01-26T17:29:01.205Z,-1.20
2023-01-26T17:31:28.796Z,-1.20
2023-01-26T17:33:56.037Z,-1.20
2023-01-26T17:36:23.748Z,-1.10
2023-01-26T17:38:50.912Z,-1.10
2023-01-26T17:41:18.270Z,-1.10
2023-01-26T17:43:46.243Z,-1.10
2023-01-26T17:46:20.017Z,-1.10
2023-01-26T17:48:48.587Z,-1.00
2023-01-26T17:51:19.548Z,-1.00
2023-01-26T17:53:49.766Z,-1.00
2023-01-26T17:56:20.762Z,-1.00
2023-01-26T17:58:50.602Z,-1.00
2023-01-26T18:01:21.647Z,-1.00
2023-01-26T18:03:49.375Z,-1.00
2023-01-26T18:06:17.354Z,-1.00
2023-01-26T18:08:44.454Z,-1.00
2023-01-26T18:11:14.825Z,-1.10
2023-01-26T18:13:42.647Z,-1.20
2023-01-26T18:16:14.742Z,-1.20
2023-01-26T18:18:42.042Z,-1.10
2023-01-26T18:21:17.830Z,-1.10
2023-01-26T18:24:02.440Z,-1.10
2023-01-26T18:26:34.488Z,-1.10
2023-01-26T18:29:05.954Z,-1.10
2023-01-26T18:31:42.287Z,-1.10
2023-01-26T18:34:11.719Z,-1.20
2023-01-26T18:36:40.470Z,-1.10
2023-01-26T18:39:13.888Z,-1.20
2023-01-26T18:41:43.293Z,-1.20
2023-01-26T18:44:10.722Z,-1.30
2023-01-26T18:46:38.709Z,-1.30
2023-01-26T18:49:05.863Z,-1.30
2023-01-26T18:51:37.249Z,-1.20
2023-01-26T18:54:05.914Z,-1.30
2023-01-26T18:56:34.256Z,-1.30
2023-01-26T18:59:01.299Z,-1.30
2023-01-26T19:01:28.523Z,-1.20
2023-01-26T19:03:56.050Z,-1.20
2023-01-26T19:06:26.029Z,-1.20
2023-01-26T19:09:00.846Z,-1.10
2023-01-26T19:11:31.166Z,-1.10
2023-01-26T19:13:59.786Z,-1.10
2023-01-26T19:16:28.027Z,-1.10
2023-01-26T19:18:55.930Z,-1.10
2023-01-26T19:21:25.863Z,-1.20
2023-01-26T19:23:55.587Z,-1.10
2023-01-26T19:26:26.013Z,-1.10
2023-01-26T19:28:54.509Z,-1.20
2023-01-26T19:31:22.531Z,-1.10
2023-01-26T19:33:55.479Z,-1.10
2023-01-26T19:36:23.701Z,-1.10
2023-01-26T19:38:51.524Z,-1.00
2023-01-26T19:41:20.444Z,-1.00
2023-01-26T19:43:47.983Z,-1.00
2023-01-26T19:46:16.572Z,-0.90
2023-01-26T19:48:46.363Z,-0.90
2023-01-26T19:51:23.968Z,-0.90
2023-01-26T19:53:56.153Z,-0.90
2023-01-26T19:56:33.031Z,-0.90
2023-01-26T19:59:07.054Z,-1.00
2023-01-26T20:01:34.594Z,-1.10
2023-01-26T20:04:06.524Z,-1.10
2023-01-26T20:06:35.455Z,-1.10
2023-01-26T20:09:05.115Z,-1.10
2023-01-26T20:11:32.504Z,-1.10
2023-01-26T20:14:02.701Z,-1.10
2023-01-26T20:16:31.931Z,-1.10
2023-01-26T20:19:00.102Z,-1.10
2023-01-26T20:21:29.258Z,-1.10
2023-01-26T20:23:57.171Z,-1.00
2023-01-26T20:26:30.385Z,-1.00
2023-01-26T20:28:58.340Z,-1.00
2023-01-26T20:31:26.860Z,-1.00
2023-01-26T20:33:54.829Z,-1.00
2023-01-26T20:36:27.331Z,-1.00
2023-01-26T20:38:54.870Z,-1.00
2023-01-26T20:41:27.529Z,-1.00
2023-01-26T20:44:00.917Z,-1.00
2023-01-26T20:46:36.517Z,-1.00
2023-01-26T20:49:04.906Z,-1.10
2023-01-26T20:51:36.366Z,-1.10
2023-01-26T20:54:06.730Z,-1.20
2023-01-26T20:56:35.113Z,-1.20
2023-01-26T20:59:02.911Z,-1.20
2023-01-26T21:01:30.477Z,-1.20
2023-01-26T21:03:57.584Z,-1.30
2023-01-26T21:06:24.783Z,-1.30
2023-01-26T21:08:56.279Z,-1.20
2023-01-26T21:11:27.179Z,-1.10
2023-01-26T21:14:01.803Z,-1.10
2023-01-26T21:16:31.098Z,-1.10
2023-01-26T21:18:58.621Z,-1.00
2023-01-26T21:21:26.002Z,-1.00
2023-01-26T21:23:53.380Z,-1.00
2023-01-26T21:26:23.876Z,-1.00
2023-01-26T21:28:53.442Z,-1.00
2023-01-26T21:31:22.585Z,-1.00
2023-01-26T21:33:51.608Z,-1.00
2023-01-26T21:36:23.552Z,-0.90
2023-01-26T21:38:54.482Z,-0.90
2023-01-26T21:41:43.926Z,-1.00
2023-01-26T21:44:26.990Z,-1.00
2023-01-26T21:46:58.166Z,-1.10
2023-01-26T21:49:25.646Z,-1.00
2023-01-26T21:52:11.844Z,-1.00
2023-01-26T21:54:39.788Z,-1.00
2023-01-26T21:57:28.489Z,-1.00
2023-01-26T21:59:55.967Z,-1.00
2023-01-26T22:02:24.093Z,-1.00
2023-01-26T22:04:51.650Z,-1.00
2023-01-26T22:07:18.906Z,-1.00
2023-01-26T22:09:46.259Z,-1.00
2023-01-26T22:12:13.640Z,-1.10
2023-01-26T22:14:40.973Z,-1.10
2023-01-26T22:17:08.399Z,-1.10
2023-01-26T22:19:35.800Z,-1.10
2023-01-26T22:22:03.594Z,-1.10
2023-01-26T22:24:30.690Z,-1.10
2023-01-26T22:26:57.924Z,-1.10
2023-01-26T22:29:25.445Z,-1.10
2023-01-26T22:31:52.598Z,-1.10
2023-01-26T22:34:19.866Z,-1.10
2023-01-26T22:36:47.009Z,-1.10
2023-01-26T22:39:14.163Z,-1.10
2023-01-26T22:41:41.318Z,-1.10
2023-01-26T22:44:09.225Z,-1.10
2023-01-26T22:46:36.953Z,-1.10
2023-01-26T22:49:07.404Z,-1.10
2023-01-26T22:51:37.561Z,-1.10
2023-01-26T22:54:05.812Z,-1.00
2023-01-26T22:56:33.917Z,-1.00
2023-01-26T22:59:01.597Z,-1.00
2023-01-26T23:01:31.423Z,-1.00
2023-01-26T23:03:59.471Z,-1.10
2023-01-26T23:06:27.174Z,-1.10
2023-01-26T23:08:54.631Z,-1.10
2023-01-26T23:11:25.617Z,-1.10
2023-01-26T23:13:54.838Z,-1.20
2023-01-26T23:16:23.763Z,-1.20
2023-01-26T23:18:52.766Z,-1.20
2023-01-26T23:21:20.404Z,-1.20
2023-01-26T23:23:47.765Z,-1.10
2023-01-26T23:26:14.916Z,-1.20
2023-01-26T23:28:44.030Z,-1.10
2023-01-26T23:31:14.016Z,-1.10
2023-01-26T23:33:41.459Z,-1.00
2023-01-26T23:36:11.496Z,-1.00
2023-01-26T23:38:38.768Z,-1.00
2023-01-26T23:41:08.553Z,-1.00
2023-01-26T23:43:35.865Z,-1.00
2023-01-26T23:46:04.975Z,-0.90
2023-01-26T23:48:32.145Z,-0.90
2023-01-26T23:51:02.312Z,-0.90
2023-01-26T23:53:30.730Z,-0.90
2023-01-26T23:56:00.976Z,-0.90
2023-01-26T23:58:28.073Z,-0.90
